sensor_id;sensor_type;location;lat;lon;timestamp;pressure;altitude;pressure_sealevel;temperature;humidity
36222;BME280;22266;52.340;4.962;2023-02-22T00:00:19;101530.81;;;8.31;77.61
36222;BME280;22266;52.340;4.962;2023-02-22T00:02:55;101522.91;;;8.29;77.86
36222;BME280;22266;52.340;4.962;2023-02-22T00:05:28;101533.00;;;8.35;77.55
36222;BME280;22266;52.340;4.962;2023-02-22T00:07:56;101536.66;;;8.34;77.87
36222;BME280;22266;52.340;4.962;2023-02-22T00:10:23;101524.75;;;8.29;77.70
36222;BME280;22266;52.340;4.962;2023-02-22T00:12:51;101531.13;;;8.28;77.95
36222;BME280;22266;52.340;4.962;2023-02-22T00:15:20;101524.72;;;8.21;78.10
36222;BME280;22266;52.340;4.962;2023-02-22T00:17:47;101525.72;;;8.20;77.90
36222;BME280;22266;52.340;4.962;2023-02-22T00:20:15;101518.84;;;8.17;77.92
36222;BME280;22266;52.340;4.962;2023-02-22T00:22:47;101514.97;;;8.11;77.44
36222;BME280;22266;52.340;4.962;2023-02-22T00:25:15;101524.03;;;8.10;77.99
36222;BME280;22266;52.340;4.962;2023-02-22T00:27:45;101517.47;;;8.13;77.78
36222;BME280;22266;52.340;4.962;2023-02-22T00:30:15;101517.16;;;8.16;78.04
36222;BME280;22266;52.340;4.962;2023-02-22T00:32:45;101522.00;;;8.12;77.37
36222;BME280;22266;52.340;4.962;2023-02-22T00:35:17;101525.19;;;8.08;77.97
36222;BME280;22266;52.340;4.962;2023-02-22T00:37:47;101514.41;;;8.00;77.37
36222;BME280;22266;52.340;4.962;2023-02-22T00:40:17;101524.09;;;7.92;77.56
36222;BME280;22266;52.340;4.962;2023-02-22T00:42:44;101525.28;;;7.90;77.62
36222;BME280;22266;52.340;4.962;2023-02-22T00:45:15;101513.53;;;7.91;78.05
36222;BME280;22266;52.340;4.962;2023-02-22T00:47:42;101514.38;;;7.91;78.20
36222;BME280;22266;52.340;4.962;2023-02-22T00:50:09;101512.19;;;7.87;77.77
36222;BME280;22266;52.340;4.962;2023-02-22T00:52:36;101501.59;;;7.85;77.35
36222;BME280;22266;52.340;4.962;2023-02-22T00:55:05;101499.94;;;7.84;77.79
36222;BME280;22266;52.340;4.962;2023-02-22T00:57:33;101489.38;;;7.83;78.04
36222;BME280;22266;52.340;4.962;2023-02-22T01:00:13;101508.97;;;7.83;77.90
36222;BME280;22266;52.340;4.962;2023-02-22T01:02:41;101505.47;;;7.83;77.63
36222;BME280;22266;52.340;4.962;2023-02-22T01:05:10;101499.59;;;7.79;78.42
36222;BME280;22266;52.340;4.962;2023-02-22T01:07:39;101492.16;;;7.73;77.84
36222;BME280;22266;52.340;4.962;2023-02-22T01:10:07;101496.03;;;7.71;78.49
36222;BME280;22266;52.340;4.962;2023-02-22T01:12:34;101486.44;;;7.68;78.36
36222;BME280;22266;52.340;4.962;2023-02-22T01:15:05;101494.50;;;7.68;78.30
36222;BME280;22266;52.340;4.962;2023-02-22T01:17:36;101495.31;;;7.68;78.78
36222;BME280;22266;52.340;4.962;2023-02-22T01:20:09;101484.56;;;7.60;78.20
36222;BME280;22266;52.340;4.962;2023-02-22T01:22:41;101479.16;;;7.52;79.19
36222;BME280;22266;52.340;4.962;2023-02-22T01:25:10;101477.44;;;7.43;78.99
36222;BME280;22266;52.340;4.962;2023-02-22T01:27:36;101477.78;;;7.48;78.84
36222;BME280;22266;52.340;4.962;2023-02-22T01:30:05;101475.94;;;7.49;78.97
36222;BME280;22266;52.340;4.962;2023-02-22T01:32:34;101477.97;;;7.47;79.56
36222;BME280;22266;52.340;4.962;2023-02-22T01:35:03;101475.94;;;7.49;79.65
36222;BME280;22266;52.340;4.962;2023-02-22T01:37:31;101483.38;;;7.55;79.26
36222;BME280;22266;52.340;4.962;2023-02-22T01:39:58;101479.34;;;7.51;79.23
36222;BME280;22266;52.340;4.962;2023-02-22T01:42:25;101477.75;;;7.40;79.32
36222;BME280;22266;52.340;4.962;2023-02-22T01:48:11;101481.75;;;7.36;78.93
36222;BME280;22266;52.340;4.962;2023-02-22T01:50:51;101482.78;;;7.43;79.24
36222;BME280;22266;52.340;4.962;2023-02-22T01:53:24;101470.41;;;7.42;79.13
36222;BME280;22266;52.340;4.962;2023-02-22T01:55:53;101465.88;;;7.42;79.25
36222;BME280;22266;52.340;4.962;2023-02-22T01:58:23;101465.88;;;7.42;79.25
36222;BME280;22266;52.340;4.962;2023-02-22T02:00:51;101465.19;;;7.40;79.27
36222;BME280;22266;52.340;4.962;2023-02-22T02:03:21;101468.72;;;7.41;79.17
36222;BME280;22266;52.340;4.962;2023-02-22T02:05:50;101466.97;;;7.32;78.94
36222;BME280;22266;52.340;4.962;2023-02-22T02:10:46;101457.06;;;7.24;79.28
36222;BME280;22266;52.340;4.962;2023-02-22T02:13:13;101450.38;;;7.28;79.49
36222;BME280;22266;52.340;4.962;2023-02-22T02:15:41;101445.56;;;7.32;79.63
36222;BME280;22266;52.340;4.962;2023-02-22T02:18:10;101439.91;;;7.35;79.10
36222;BME280;22266;52.340;4.962;2023-02-22T02:20:58;101438.22;;;7.34;79.03
36222;BME280;22266;52.340;4.962;2023-02-22T02:23:37;101434.72;;;7.33;79.19
36222;BME280;22266;52.340;4.962;2023-02-22T02:29:42;101420.50;;;7.41;79.04
36222;BME280;22266;52.340;4.962;2023-02-22T02:35:37;101417.16;;;7.39;78.74
36222;BME280;22266;52.340;4.962;2023-02-22T02:41:08;101412.47;;;7.41;78.71
36222;BME280;22266;52.340;4.962;2023-02-22T02:43:44;101414.47;;;7.39;78.30
36222;BME280;22266;52.340;4.962;2023-02-22T02:46:19;101401.56;;;7.34;77.94
36222;BME280;22266;52.340;4.962;2023-02-22T02:49:02;101404.25;;;7.34;78.51
36222;BME280;22266;52.340;4.962;2023-02-22T02:51:35;101403.53;;;7.32;77.23
36222;BME280;22266;52.340;4.962;2023-02-22T02:54:03;101408.84;;;7.24;77.32
36222;BME280;22266;52.340;4.962;2023-02-22T02:56:30;101388.44;;;7.23;77.36
36222;BME280;22266;52.340;4.962;2023-02-22T02:58:57;101398.31;;;7.23;77.00
36222;BME280;22266;52.340;4.962;2023-02-22T03:04:36;101391.84;;;7.33;77.88
36222;BME280;22266;52.340;4.962;2023-02-22T03:13:02;101376.59;;;7.26;77.13
36222;BME280;22266;52.340;4.962;2023-02-22T03:15:41;101389.53;;;7.12;76.90
36222;BME280;22266;52.340;4.962;2023-02-22T03:18:17;101384.31;;;7.03;76.29
36222;BME280;22266;52.340;4.962;2023-02-22T03:21:11;101375.56;;;7.01;77.39
36222;BME280;22266;52.340;4.962;2023-02-22T03:24:00;101374.97;;;7.07;77.02
36222;BME280;22266;52.340;4.962;2023-02-22T03:26:36;101366.56;;;7.02;76.75
36222;BME280;22266;52.340;4.962;2023-02-22T03:29:07;101360.88;;;7.05;77.50
36222;BME280;22266;52.340;4.962;2023-02-22T03:31:39;101359.06;;;7.05;76.91
36222;BME280;22266;52.340;4.962;2023-02-22T03:34:12;101364.03;;;7.00;77.16
36222;BME280;22266;52.340;4.962;2023-02-22T03:36:46;101365.03;;;6.99;76.93
36222;BME280;22266;52.340;4.962;2023-02-22T03:39:15;101358.03;;;6.98;77.07
36222;BME280;22266;52.340;4.962;2023-02-22T03:41:47;101351.44;;;6.92;76.84
36222;BME280;22266;52.340;4.962;2023-02-22T03:44:23;101348.09;;;6.90;76.64
36222;BME280;22266;52.340;4.962;2023-02-22T03:46:53;101345.59;;;6.89;77.02
36222;BME280;22266;52.340;4.962;2023-02-22T03:49:32;101346.09;;;6.92;77.52
36222;BME280;22266;52.340;4.962;2023-02-22T03:52:02;101349.09;;;6.89;77.03
36222;BME280;22266;52.340;4.962;2023-02-22T03:54:31;101346.56;;;6.88;76.81
36222;BME280;22266;52.340;4.962;2023-02-22T03:57:14;101356.44;;;6.87;77.51
36222;BME280;22266;52.340;4.962;2023-02-22T03:59:43;101342.06;;;6.88;77.34
36222;BME280;22266;52.340;4.962;2023-02-22T04:02:11;101346.25;;;6.91;77.60
36222;BME280;22266;52.340;4.962;2023-02-22T04:04:37;101357.31;;;6.96;77.31
36222;BME280;22266;52.340;4.962;2023-02-22T04:07:05;101340.97;;;6.99;77.40
36222;BME280;22266;52.340;4.962;2023-02-22T04:09:31;101333.75;;;7.00;77.55
36222;BME280;22266;52.340;4.962;2023-02-22T04:11:58;101327.34;;;6.92;76.84
36222;BME280;22266;52.340;4.962;2023-02-22T04:14:25;101324.19;;;6.89;77.48
36222;BME280;22266;52.340;4.962;2023-02-22T04:16:55;101317.81;;;6.90;77.45
36222;BME280;22266;52.340;4.962;2023-02-22T04:19:22;101321.81;;;6.86;77.35
36222;BME280;22266;52.340;4.962;2023-02-22T04:21:50;101317.25;;;6.78;77.37
36222;BME280;22266;52.340;4.962;2023-02-22T04:24:20;101311.69;;;6.72;77.08
36222;BME280;22266;52.340;4.962;2023-02-22T04:26:47;101317.44;;;6.59;77.14
36222;BME280;22266;52.340;4.962;2023-02-22T04:29:14;101317.91;;;6.54;77.59
36222;BME280;22266;52.340;4.962;2023-02-22T04:31:43;101321.06;;;6.50;77.68
36222;BME280;22266;52.340;4.962;2023-02-22T04:34:10;101319.75;;;6.54;78.26
36222;BME280;22266;52.340;4.962;2023-02-22T04:36:38;101308.91;;;6.55;77.65
36222;BME280;22266;52.340;4.962;2023-02-22T04:39:07;101301.03;;;6.54;78.00
36222;BME280;22266;52.340;4.962;2023-02-22T04:41:34;101298.06;;;6.57;77.68
36222;BME280;22266;52.340;4.962;2023-02-22T04:44:01;101295.53;;;6.55;77.67
36222;BME280;22266;52.340;4.962;2023-02-22T04:46:29;101291.53;;;6.59;77.79
36222;BME280;22266;52.340;4.962;2023-02-22T04:48:56;101297.59;;;6.61;77.59
36222;BME280;22266;52.340;4.962;2023-02-22T04:51:26;101287.38;;;6.57;77.93
36222;BME280;22266;52.340;4.962;2023-02-22T04:54:01;101280.00;;;6.59;77.83
36222;BME280;22266;52.340;4.962;2023-02-22T04:56:30;101274.81;;;6.57;77.32
36222;BME280;22266;52.340;4.962;2023-02-22T04:58:56;101280.31;;;6.56;77.27
36222;BME280;22266;52.340;4.962;2023-02-22T05:01:23;101275.31;;;6.53;77.57
36222;BME280;22266;52.340;4.962;2023-02-22T05:03:49;101283.94;;;6.47;77.94
36222;BME280;22266;52.340;4.962;2023-02-22T05:06:17;101274.53;;;6.42;77.60
36222;BME280;22266;52.340;4.962;2023-02-22T05:08:43;101274.66;;;6.33;78.10
36222;BME280;22266;52.340;4.962;2023-02-22T05:11:10;101279.16;;;6.32;78.70
36222;BME280;22266;52.340;4.962;2023-02-22T05:13:36;101273.47;;;6.35;78.46
36222;BME280;22266;52.340;4.962;2023-02-22T05:16:03;101270.81;;;6.35;79.27
36222;BME280;22266;52.340;4.962;2023-02-22T05:18:29;101271.66;;;6.36;78.54
36222;BME280;22266;52.340;4.962;2023-02-22T05:20:56;101260.81;;;6.37;79.17
36222;BME280;22266;52.340;4.962;2023-02-22T05:23:22;101265.81;;;6.32;78.92
36222;BME280;22266;52.340;4.962;2023-02-22T05:25:48;101267.41;;;6.25;79.11
36222;BME280;22266;52.340;4.962;2023-02-22T05:28:15;101254.88;;;6.26;79.56
36222;BME280;22266;52.340;4.962;2023-02-22T05:30:42;101247.91;;;6.33;79.09
36222;BME280;22266;52.340;4.962;2023-02-22T05:33:09;101242.88;;;6.30;79.08
36222;BME280;22266;52.340;4.962;2023-02-22T05:35:36;101231.19;;;6.31;79.49
36222;BME280;22266;52.340;4.962;2023-02-22T05:38:03;101226.47;;;6.25;79.35
36222;BME280;22266;52.340;4.962;2023-02-22T05:40:31;101224.88;;;6.14;79.17
36222;BME280;22266;52.340;4.962;2023-02-22T05:42:57;101219.00;;;6.10;79.75
36222;BME280;22266;52.340;4.962;2023-02-22T05:45:26;101220.69;;;6.11;80.03
36222;BME280;22266;52.340;4.962;2023-02-22T05:47:53;101231.75;;;6.16;80.39
36222;BME280;22266;52.340;4.962;2023-02-22T05:50:20;101230.59;;;6.19;79.62
36222;BME280;22266;52.340;4.962;2023-02-22T05:52:47;101228.31;;;6.24;80.53
36222;BME280;22266;52.340;4.962;2023-02-22T05:55:17;101228.16;;;6.26;79.51
36222;BME280;22266;52.340;4.962;2023-02-22T05:57:43;101228.16;;;6.26;80.21
36222;BME280;22266;52.340;4.962;2023-02-22T06:00:15;101222.28;;;6.22;79.86
36222;BME280;22266;52.340;4.962;2023-02-22T06:02:42;101228.31;;;6.24;80.31
36222;BME280;22266;52.340;4.962;2023-02-22T06:05:08;101230.59;;;6.19;79.51
36222;BME280;22266;52.340;4.962;2023-02-22T06:07:35;101232.25;;;6.12;80.22
36222;BME280;22266;52.340;4.962;2023-02-22T06:10:01;101233.59;;;6.16;79.86
36222;BME280;22266;52.340;4.962;2023-02-22T06:12:28;101221.06;;;6.16;80.31
36222;BME280;22266;52.340;4.962;2023-02-22T06:14:54;101211.22;;;6.17;79.78
36222;BME280;22266;52.340;4.962;2023-02-22T06:17:21;101214.38;;;6.12;80.45
36222;BME280;22266;52.340;4.962;2023-02-22T06:19:47;101222.75;;;6.17;80.85
36222;BME280;22266;52.340;4.962;2023-02-22T06:22:18;101218.22;;;6.18;80.17
36222;BME280;22266;52.340;4.962;2023-02-22T06:24:45;101226.56;;;6.15;80.66
36222;BME280;22266;52.340;4.962;2023-02-22T06:27:11;101219.91;;;6.19;80.73
36222;BME280;22266;52.340;4.962;2023-02-22T06:29:38;101224.63;;;6.25;80.94
36222;BME280;22266;52.340;4.962;2023-02-22T06:32:04;101230.66;;;6.27;80.30
36222;BME280;22266;52.340;4.962;2023-02-22T06:34:31;101224.94;;;6.22;80.16
36222;BME280;22266;52.340;4.962;2023-02-22T06:36:57;101225.88;;;6.13;80.25
36222;BME280;22266;52.340;4.962;2023-02-22T06:39:25;101237.94;;;6.17;80.71
36222;BME280;22266;52.340;4.962;2023-02-22T06:41:51;101217.09;;;6.21;81.03
36222;BME280;22266;52.340;4.962;2023-02-22T06:44:20;101215.72;;;6.16;80.31
36222;BME280;22266;52.340;4.962;2023-02-22T06:46:48;101204.50;;;6.13;81.54
36222;BME280;22266;52.340;4.962;2023-02-22T06:49:17;101208.19;;;6.12;81.46
36222;BME280;22266;52.340;4.962;2023-02-22T06:51:44;101209.53;;;6.16;81.00
36222;BME280;22266;52.340;4.962;2023-02-22T06:54:11;101205.88;;;6.17;81.84
36222;BME280;22266;52.340;4.962;2023-02-22T06:56:37;101204.69;;;6.19;81.50
36222;BME280;22266;52.340;4.962;2023-02-22T06:59:04;101223.09;;;6.23;81.27
36222;BME280;22266;52.340;4.962;2023-02-22T07:01:30;101219.44;;;6.24;81.25
36222;BME280;22266;52.340;4.962;2023-02-22T07:03:57;101214.78;;;6.26;81.45
36222;BME280;22266;52.340;4.962;2023-02-22T07:06:23;101217.44;;;6.26;81.02
36222;BME280;22266;52.340;4.962;2023-02-22T07:08:49;101212.06;;;6.17;81.55
36222;BME280;22266;52.340;4.962;2023-02-22T07:11:16;101207.00;;;6.14;81.34
36222;BME280;22266;52.340;4.962;2023-02-22T07:13:43;101200.53;;;6.17;81.69
36222;BME280;22266;52.340;4.962;2023-02-22T07:16:10;101197.16;;;6.15;81.69
36222;BME280;22266;52.340;4.962;2023-02-22T07:18:37;101206.19;;;6.14;81.71
36222;BME280;22266;52.340;4.962;2023-02-22T07:21:04;101208.84;;;6.14;81.86
36222;BME280;22266;52.340;4.962;2023-02-22T07:23:31;101201.66;;;6.14;82.31
36222;BME280;22266;52.340;4.962;2023-02-22T07:26:01;101207.19;;;6.13;82.31
36222;BME280;22266;52.340;4.962;2023-02-22T07:28:28;101214.50;;;6.11;82.40
36222;BME280;22266;52.340;4.962;2023-02-22T07:30:54;101202.97;;;6.10;81.80
36222;BME280;22266;52.340;4.962;2023-02-22T07:33:21;101207.84;;;6.15;82.96
36222;BME280;22266;52.340;4.962;2023-02-22T07:35:49;101210.75;;;6.22;82.50
36222;BME280;22266;52.340;4.962;2023-02-22T07:38:18;101205.09;;;6.25;82.88
36222;BME280;22266;52.340;4.962;2023-02-22T07:40:45;101206.53;;;6.19;82.06
36222;BME280;22266;52.340;4.962;2023-02-22T07:43:20;101209.06;;;6.21;82.06
36222;BME280;22266;52.340;4.962;2023-02-22T07:45:48;101204.09;;;6.26;82.50
36222;BME280;22266;52.340;4.962;2023-02-22T07:48:17;101206.59;;;6.27;82.09
36222;BME280;22266;52.340;4.962;2023-02-22T07:50:44;101209.13;;;6.29;82.62
36222;BME280;22266;52.340;4.962;2023-02-22T07:53:13;101210.28;;;6.26;81.94
36222;BME280;22266;52.340;4.962;2023-02-22T07:55:40;101224.72;;;6.15;82.48
36222;BME280;22266;52.340;4.962;2023-02-22T07:58:07;101215.38;;;6.19;82.50
36222;BME280;22266;52.340;4.962;2023-02-22T08:00:36;101215.78;;;6.25;83.21
36222;BME280;22266;52.340;4.962;2023-02-22T08:03:10;101222.97;;;6.24;81.95
36222;BME280;22266;52.340;4.962;2023-02-22T08:05:38;101205.56;;;6.20;82.19
36222;BME280;22266;52.340;4.962;2023-02-22T08:08:06;101217.75;;;6.23;82.17
36222;BME280;22266;52.340;4.962;2023-02-22T08:10:34;101216.94;;;6.22;82.61
36222;BME280;22266;52.340;4.962;2023-02-22T08:13:02;101214.78;;;6.26;82.71
36222;BME280;22266;52.340;4.962;2023-02-22T08:15:31;101218.75;;;6.22;82.74
36222;BME280;22266;52.340;4.962;2023-02-22T08:17:59;101215.38;;;6.19;82.25
36222;BME280;22266;52.340;4.962;2023-02-22T08:20:27;101220.53;;;6.13;82.90
36222;BME280;22266;52.340;4.962;2023-02-22T08:22:56;101219.91;;;6.19;83.70
36222;BME280;22266;52.340;4.962;2023-02-22T08:25:25;101209.97;;;6.29;83.73
36222;BME280;22266;52.340;4.962;2023-02-22T08:27:56;101215.38;;;6.37;82.88
36222;BME280;22266;52.340;4.962;2023-02-22T08:30:25;101211.50;;;6.40;82.43
36222;BME280;22266;52.340;4.962;2023-02-22T08:32:51;101215.13;;;6.31;82.06
36222;BME280;22266;52.340;4.962;2023-02-22T08:35:19;101219.66;;;6.30;82.56
36222;BME280;22266;52.340;4.962;2023-02-22T08:37:48;101219.19;;;6.35;82.91
36222;BME280;22266;52.340;4.962;2023-02-22T08:40:17;101212.69;;;6.37;82.20
36222;BME280;22266;52.340;4.962;2023-02-22T08:42:44;101207.69;;;6.42;82.77
36222;BME280;22266;52.340;4.962;2023-02-22T08:45:11;101207.03;;;6.40;82.46
36222;BME280;22266;52.340;4.962;2023-02-22T08:47:39;101208.28;;;6.28;82.09
36222;BME280;22266;52.340;4.962;2023-02-22T08:50:07;101214.31;;;6.30;82.35
36222;BME280;22266;52.340;4.962;2023-02-22T08:52:33;101208.13;;;6.30;83.20
36222;BME280;22266;52.340;4.962;2023-02-22T08:55:01;101213.16;;;6.33;83.23
36222;BME280;22266;52.340;4.962;2023-02-22T08:57:27;101203.59;;;6.30;83.04
36222;BME280;22266;52.340;4.962;2023-02-22T08:59:54;101197.66;;;6.36;83.16
36222;BME280;22266;52.340;4.962;2023-02-22T09:02:21;101195.81;;;6.37;82.90
36222;BME280;22266;52.340;4.962;2023-02-22T09:04:48;101203.00;;;6.36;82.41
36222;BME280;22266;52.340;4.962;2023-02-22T09:07:15;101206.34;;;6.38;82.53
36222;BME280;22266;52.340;4.962;2023-02-22T09:09:43;101191.56;;;6.26;82.78
36222;BME280;22266;52.340;4.962;2023-02-22T09:12:10;101194.59;;;6.31;82.93
36222;BME280;22266;52.340;4.962;2023-02-22T09:14:36;101186.56;;;6.31;82.38
36222;BME280;22266;52.340;4.962;2023-02-22T09:17:03;101198.47;;;6.37;82.84
36222;BME280;22266;52.340;4.962;2023-02-22T09:19:31;101191.00;;;6.40;83.36
36222;BME280;22266;52.340;4.962;2023-02-22T09:21:58;101187.97;;;6.43;82.29
36222;BME280;22266;52.340;4.962;2023-02-22T09:24:27;101179.47;;;6.48;82.63
36222;BME280;22266;52.340;4.962;2023-02-22T09:26:54;101180.69;;;6.54;82.70
36222;BME280;22266;52.340;4.962;2023-02-22T09:29:22;101172.34;;;6.57;82.71
36222;BME280;22266;52.340;4.962;2023-02-22T09:31:51;101162.63;;;6.56;82.24
36222;BME280;22266;52.340;4.962;2023-02-22T09:34:19;101161.00;;;6.63;82.42
36222;BME280;22266;52.340;4.962;2023-02-22T09:36:46;101154.16;;;6.60;81.68
36222;BME280;22266;52.340;4.962;2023-02-22T09:39:14;101159.00;;;6.65;81.73
36222;BME280;22266;52.340;4.962;2023-02-22T09:41:44;101151.81;;;6.65;81.66
36222;BME280;22266;52.340;4.962;2023-02-22T09:44:23;101152.13;;;6.62;81.85
36222;BME280;22266;52.340;4.962;2023-02-22T09:46:56;101142.44;;;6.61;81.88
36222;BME280;22266;52.340;4.962;2023-02-22T09:49:30;101147.94;;;6.60;81.91
36222;BME280;22266;52.340;4.962;2023-02-22T09:52:10;101136.59;;;6.66;81.96
36222;BME280;22266;52.340;4.962;2023-02-22T09:54:45;101144.97;;;6.71;82.25
36222;BME280;22266;52.340;4.962;2023-02-22T09:57:23;101136.47;;;6.76;82.51
36222;BME280;22266;52.340;4.962;2023-02-22T10:00:18;101136.66;;;6.82;81.70
36222;BME280;22266;52.340;4.962;2023-02-22T10:03:02;101147.72;;;6.87;81.49
36222;BME280;22266;52.340;4.962;2023-02-22T10:05:35;101140.03;;;6.92;81.27
36222;BME280;22266;52.340;4.962;2023-02-22T10:08:05;101133.69;;;6.93;81.32
36222;BME280;22266;52.340;4.962;2023-02-22T10:10:37;101132.19;;;6.99;80.82
36222;BME280;22266;52.340;4.962;2023-02-22T10:20:56;101135.56;;;7.09;80.41
36222;BME280;22266;52.340;4.962;2023-02-22T10:23:40;101144.09;;;7.13;79.99
36222;BME280;22266;52.340;4.962;2023-02-22T10:26:24;101156.50;;;7.14;79.70
36222;BME280;22266;52.340;4.962;2023-02-22T10:31:45;101165.38;;;7.23;80.75
36222;BME280;22266;52.340;4.962;2023-02-22T10:34:20;101159.34;;;7.37;80.39
36222;BME280;22266;52.340;4.962;2023-02-22T10:36:53;101155.69;;;7.46;80.15
36222;BME280;22266;52.340;4.962;2023-02-22T10:39:30;101151.84;;;7.57;79.73
36222;BME280;22266;52.340;4.962;2023-02-22T10:42:01;101144.16;;;7.62;79.24
36222;BME280;22266;52.340;4.962;2023-02-22T10:44:36;101136.78;;;7.64;79.47
36222;BME280;22266;52.340;4.962;2023-02-22T10:47:06;101137.78;;;7.71;79.20
36222;BME280;22266;52.340;4.962;2023-02-22T10:49:36;101131.75;;;7.77;79.03
36222;BME280;22266;52.340;4.962;2023-02-22T10:52:13;101122.34;;;7.81;78.54
36222;BME280;22266;52.340;4.962;2023-02-22T10:54:45;101120.34;;;7.83;78.14
36222;BME280;22266;52.340;4.962;2023-02-22T10:57:13;101119.66;;;7.81;77.71
36222;BME280;22266;52.340;4.962;2023-02-22T10:59:43;101108.13;;;7.81;78.11
36222;BME280;22266;52.340;4.962;2023-02-22T11:02:31;101111.31;;;7.84;77.88
36222;BME280;22266;52.340;4.962;2023-02-22T11:05:04;101104.59;;;7.88;77.65
36222;BME280;22266;52.340;4.962;2023-02-22T11:07:33;101135.59;;;7.91;77.77
36222;BME280;22266;52.340;4.962;2023-02-22T11:10:07;101146.97;;;8.01;78.40
36222;BME280;22266;52.340;4.962;2023-02-22T11:12:35;101152.97;;;8.11;77.97
36222;BME280;22266;52.340;4.962;2023-02-22T11:17:45;101140.56;;;8.18;77.15
36222;BME280;22266;52.340;4.962;2023-02-22T11:20:27;101133.38;;;8.19;77.18
36222;BME280;22266;52.340;4.962;2023-02-22T11:23:01;101132.84;;;8.24;76.70
36222;BME280;22266;52.340;4.962;2023-02-22T11:25:37;101128.84;;;8.20;76.86
36222;BME280;22266;52.340;4.962;2023-02-22T11:28:10;101133.88;;;8.23;76.73
36222;BME280;22266;52.340;4.962;2023-02-22T11:30:41;101130.16;;;8.24;76.45
36222;BME280;22266;52.340;4.962;2023-02-22T11:33:27;101128.28;;;8.32;76.70
36222;BME280;22266;52.340;4.962;2023-02-22T11:35:58;101132.00;;;8.39;76.52
36222;BME280;22266;52.340;4.962;2023-02-22T11:38:33;101124.91;;;8.47;76.18
36222;BME280;22266;52.340;4.962;2023-02-22T11:41:20;101121.88;;;8.50;75.66
36222;BME280;22266;52.340;4.962;2023-02-22T11:43:51;101121.88;;;8.50;75.67
36222;BME280;22266;52.340;4.962;2023-02-22T11:46:25;101118.84;;;8.53;75.58
36222;BME280;22266;52.340;4.962;2023-02-22T11:51:49;101120.97;;;8.65;75.01
36222;BME280;22266;52.340;4.962;2023-02-22T11:54:57;101113.41;;;8.69;74.85
36222;BME280;22266;52.340;4.962;2023-02-22T12:01:04;101100.84;;;8.70;74.27
36222;BME280;22266;52.340;4.962;2023-02-22T12:06:27;101085.56;;;8.70;74.72
36222;BME280;22266;52.340;4.962;2023-02-22T12:09:10;101077.84;;;8.75;74.19
36222;BME280;22266;52.340;4.962;2023-02-22T12:11:46;101074.44;;;8.81;74.58
36222;BME280;22266;52.340;4.962;2023-02-22T12:14:19;101058.63;;;8.86;73.99
36222;BME280;22266;52.340;4.962;2023-02-22T12:20:00;101067.75;;;8.77;74.19
36222;BME280;22266;52.340;4.962;2023-02-22T12:22:35;101065.06;;;8.77;74.04
36222;BME280;22266;52.340;4.962;2023-02-22T12:25:20;101067.56;;;8.79;74.30
36222;BME280;22266;52.340;4.962;2023-02-22T12:27:52;101062.09;;;8.72;74.28
36222;BME280;22266;52.340;4.962;2023-02-22T12:30:25;101060.03;;;8.74;74.14
36222;BME280;22266;52.340;4.962;2023-02-22T12:32:57;101070.44;;;8.77;74.08
36222;BME280;22266;52.340;4.962;2023-02-22T12:35:27;101070.72;;;8.82;74.11
36222;BME280;22266;52.340;4.962;2023-02-22T12:38:05;101063.44;;;8.91;74.69
36222;BME280;22266;52.340;4.962;2023-02-22T12:41:04;101060.06;;;8.97;74.45
36222;BME280;22266;52.340;4.962;2023-02-22T12:43:52;101057.19;;;8.99;73.94
36222;BME280;22266;52.340;4.962;2023-02-22T12:46:29;101051.19;;;8.97;73.84
36222;BME280;22266;52.340;4.962;2023-02-22T12:49:10;101052.84;;;8.98;74.25
36222;BME280;22266;52.340;4.962;2023-02-22T12:54:46;101064.91;;;9.02;73.68
36222;BME280;22266;52.340;4.962;2023-02-22T13:00:19;101067.94;;;8.99;73.63
36222;BME280;22266;52.340;4.962;2023-02-22T13:03:00;101064.25;;;9.00;74.31
36222;BME280;22266;52.340;4.962;2023-02-22T13:05:33;101059.72;;;9.00;73.72
36222;BME280;22266;52.340;4.962;2023-02-22T13:13:42;101052.88;;;9.35;75.65
36222;BME280;22266;52.340;4.962;2023-02-22T13:16:27;101049.50;;;9.41;74.09
36222;BME280;22266;52.340;4.962;2023-02-22T13:19:01;101059.41;;;9.41;73.99
36222;BME280;22266;52.340;4.962;2023-02-22T13:24:17;101044.38;;;9.32;73.21
36222;BME280;22266;52.340;4.962;2023-02-22T13:26:46;101048.25;;;9.29;73.49
36222;BME280;22266;52.340;4.962;2023-02-22T13:37:16;101045.75;;;9.28;73.86
36222;BME280;22266;52.340;4.962;2023-02-22T13:42:55;101037.16;;;9.32;73.66
36222;BME280;22266;52.340;4.962;2023-02-22T13:50:51;101032.06;;;9.37;73.62
36222;BME280;22266;52.340;4.962;2023-02-22T13:53:28;101043.44;;;9.39;73.79
36222;BME280;22266;52.340;4.962;2023-02-22T13:55:59;101047.81;;;9.40;73.68
36222;BME280;22266;52.340;4.962;2023-02-22T13:58:26;101050.88;;;9.37;74.11
36222;BME280;22266;52.340;4.962;2023-02-22T14:00:56;101046.13;;;9.39;73.94
36222;BME280;22266;52.340;4.962;2023-02-22T14:03:35;101059.22;;;9.43;74.12
36222;BME280;22266;52.340;4.962;2023-02-22T14:06:08;101060.03;;;9.43;73.80
36222;BME280;22266;52.340;4.962;2023-02-22T14:11:03;101064.22;;;9.46;74.10
36222;BME280;22266;52.340;4.962;2023-02-22T14:16:23;101065.31;;;9.36;74.35
36222;BME280;22266;52.340;4.962;2023-02-22T14:19:17;101065.97;;;9.38;74.99
36222;BME280;22266;52.340;4.962;2023-02-22T14:22:02;101069.97;;;9.43;74.68
36222;BME280;22266;52.340;4.962;2023-02-22T14:24:46;101061.34;;;9.47;74.70
36222;BME280;22266;52.340;4.962;2023-02-22T14:27:14;101061.53;;;9.46;74.91
36222;BME280;22266;52.340;4.962;2023-02-22T14:29:56;101064.22;;;9.46;74.72
36222;BME280;22266;52.340;4.962;2023-02-22T14:32:33;101055.50;;;9.44;74.72
36222;BME280;22266;52.340;4.962;2023-02-22T14:35:05;101058.56;;;9.40;74.39
36222;BME280;22266;52.340;4.962;2023-02-22T14:37:48;101056.03;;;9.39;74.76
36222;BME280;22266;52.340;4.962;2023-02-22T14:40:23;101064.50;;;9.36;74.80
36222;BME280;22266;52.340;4.962;2023-02-22T14:43:11;101066.16;;;9.37;75.16
36222;BME280;22266;52.340;4.962;2023-02-22T14:45:46;101067.81;;;9.38;74.55